sensor_id;sensor_type;location;lat;lon;timestamp;P1;durP1;ratioP1;P2;durP2;ratioP2
20454;SDS011;10386;54.314;10.022;2022-11-30T00:01:18;98.77;;;37.47;;
20454;SDS011;10386;54.314;10.022;2022-11-30T00:03:48;92.87;;;34.27;;
20454;SDS011;10386;54.314;10.022;2022-11-30T00:06:18;96.70;;;35.90;;
20454;SDS011;10386;54.314;10.022;2022-11-30T00:08:51;94.13;;;35.10;;
20454;SDS011;10386;54.314;10.022;2022-11-30T00:11:19;94.23;;;34.63;;
20454;SDS011;10386;54.314;10.022;2022-11-30T00:13:48;107.50;;;36.20;;
20454;SDS011;10386;54.314;10.022;2022-11-30T00:16:16;100.17;;;35.10;;
20454;SDS011;10386;54.314;10.022;2022-11-30T00:18:43;97.60;;;36.80;;
20454;SDS011;10386;54.314;10.022;2022-11-30T00:21:11;95.50;;;34.20;;
20454;SDS011;10386;54.314;10.022;2022-11-30T00:23:41;99.27;;;37.17;;
20454;SDS011;10386;54.314;10.022;2022-11-30T00:26:10;102.90;;;36.13;;
20454;SDS011;10386;54.314;10.022;2022-11-30T00:28:39;103.63;;;36.33;;
20454;SDS011;10386;54.314;10.022;2022-11-30T00:31:09;99.03;;;35.17;;
20454;SDS011;10386;54.314;10.022;2022-11-30T00:33:38;86.87;;;32.77;;
20454;SDS011;10386;54.314;10.022;2022-11-30T00:36:07;99.63;;;36.00;;
20454;SDS011;10386;54.314;10.022;2022-11-30T00:38:38;104.37;;;35.33;;
20454;SDS011;10386;54.314;10.022;2022-11-30T00:41:06;102.30;;;34.10;;
20454;SDS011;10386;54.314;10.022;2022-11-30T00:43:33;94.40;;;34.50;;
20454;SDS011;10386;54.314;10.022;2022-11-30T00:46:01;105.83;;;36.37;;
20454;SDS011;10386;54.314;10.022;2022-11-30T00:48:31;102.63;;;36.07;;
20454;SDS011;10386;54.314;10.022;2022-11-30T00:50:58;101.17;;;37.37;;
20454;SDS011;10386;54.314;10.022;2022-11-30T00:53:26;96.57;;;35.83;;
20454;SDS011;10386;54.314;10.022;2022-11-30T00:55:53;102.23;;;36.80;;
20454;SDS011;10386;54.314;10.022;2022-11-30T00:58:21;103.10;;;35.20;;
20454;SDS011;10386;54.314;10.022;2022-11-30T01:00:49;113.30;;;34.97;;
20454;SDS011;10386;54.314;10.022;2022-11-30T01:03:16;98.50;;;36.37;;
20454;SDS011;10386;54.314;10.022;2022-11-30T01:05:44;98.10;;;35.57;;
20454;SDS011;10386;54.314;10.022;2022-11-30T01:08:11;102.47;;;38.17;;
20454;SDS011;10386;54.314;10.022;2022-11-30T01:10:40;91.23;;;35.37;;
20454;SDS011;10386;54.314;10.022;2022-11-30T01:13:09;94.77;;;35.03;;
20454;SDS011;10386;54.314;10.022;2022-11-30T01:15:39;95.97;;;35.27;;
20454;SDS011;10386;54.314;10.022;2022-11-30T01:18:09;95.73;;;34.57;;
20454;SDS011;10386;54.314;10.022;2022-11-30T01:20:40;94.50;;;35.57;;
20454;SDS011;10386;54.314;10.022;2022-11-30T01:23:08;88.67;;;34.33;;
20454;SDS011;10386;54.314;10.022;2022-11-30T01:25:36;93.03;;;34.63;;
20454;SDS011;10386;54.314;10.022;2022-11-30T01:28:03;92.83;;;35.03;;
20454;SDS011;10386;54.314;10.022;2022-11-30T01:30:31;93.80;;;34.37;;
20454;SDS011;10386;54.314;10.022;2022-11-30T01:33:02;102.37;;;36.43;;
20454;SDS011;10386;54.314;10.022;2022-11-30T01:35:30;102.97;;;36.60;;
20454;SDS011;10386;54.314;10.022;2022-11-30T01:37:58;94.93;;;34.53;;
20454;SDS011;10386;54.314;10.022;2022-11-30T01:40:25;100.07;;;35.73;;
20454;SDS011;10386;54.314;10.022;2022-11-30T01:42:53;98.47;;;34.07;;
20454;SDS011;10386;54.314;10.022;2022-11-30T01:45:20;95.97;;;36.00;;
20454;SDS011;10386;54.314;10.022;2022-11-30T01:47:48;109.60;;;36.07;;
20454;SDS011;10386;54.314;10.022;2022-11-30T01:50:25;101.00;;;36.50;;
20454;SDS011;10386;54.314;10.022;2022-11-30T01:52:56;96.67;;;35.27;;
20454;SDS011;10386;54.314;10.022;2022-11-30T01:55:37;97.83;;;36.27;;
20454;SDS011;10386;54.314;10.022;2022-11-30T01:58:14;97.50;;;35.73;;
20454;SDS011;10386;54.314;10.022;2022-11-30T02:00:45;101.47;;;36.57;;
20454;SDS011;10386;54.314;10.022;2022-11-30T02:03:19;100.13;;;34.37;;
20454;SDS011;10386;54.314;10.022;2022-11-30T02:06:01;96.37;;;36.83;;
20454;SDS011;10386;54.314;10.022;2022-11-30T02:08:28;99.43;;;36.97;;
20454;SDS011;10386;54.314;10.022;2022-11-30T02:10:57;96.43;;;34.53;;
20454;SDS011;10386;54.314;10.022;2022-11-30T02:18:55;98.03;;;35.07;;
20454;SDS011;10386;54.314;10.022;2022-11-30T02:21:24;102.47;;;36.83;;
20454;SDS011;10386;54.314;10.022;2022-11-30T02:29:51;100.90;;;36.13;;
20454;SDS011;10386;54.314;10.022;2022-11-30T02:32:24;102.20;;;34.80;;
20454;SDS011;10386;54.314;10.022;2022-11-30T02:34:59;100.37;;;35.63;;
20454;SDS011;10386;54.314;10.022;2022-11-30T02:37:29;112.73;;;36.47;;
20454;SDS011;10386;54.314;10.022;2022-11-30T02:39:59;104.00;;;35.30;;
20454;SDS011;10386;54.314;10.022;2022-11-30T02:42:26;94.13;;;34.27;;
20454;SDS011;10386;54.314;10.022;2022-11-30T02:44:56;99.53;;;36.20;;
20454;SDS011;10386;54.314;10.022;2022-11-30T02:52:37;105.90;;;36.47;;
20454;SDS011;10386;54.314;10.022;2022-11-30T02:55:06;101.10;;;35.03;;
20454;SDS011;10386;54.314;10.022;2022-11-30T02:57:35;114.50;;;37.53;;
20454;SDS011;10386;54.314;10.022;2022-11-30T03:00:03;104.13;;;35.90;;
20454;SDS011;10386;54.314;10.022;2022-11-30T03:02:32;106.90;;;36.50;;
20454;SDS011;10386;54.314;10.022;2022-11-30T03:05:00;103.13;;;37.07;;
20454;SDS011;10386;54.314;10.022;2022-11-30T03:07:27;93.77;;;34.50;;
20454;SDS011;10386;54.314;10.022;2022-11-30T03:09:55;100.40;;;35.30;;
20454;SDS011;10386;54.314;10.022;2022-11-30T03:12:23;106.03;;;36.80;;
20454;SDS011;10386;54.314;10.022;2022-11-30T03:14:50;103.67;;;37.20;;
20454;SDS011;10386;54.314;10.022;2022-11-30T03:17:18;104.73;;;36.80;;
20454;SDS011;10386;54.314;10.022;2022-11-30T03:19:45;109.27;;;35.70;;
20454;SDS011;10386;54.314;10.022;2022-11-30T03:22:12;112.47;;;37.70;;
20454;SDS011;10386;54.314;10.022;2022-11-30T03:24:40;102.27;;;36.07;;
20454;SDS011;10386;54.314;10.022;2022-11-30T03:27:07;110.17;;;37.83;;
20454;SDS011;10386;54.314;10.022;2022-11-30T03:29:34;106.93;;;36.93;;
20454;SDS011;10386;54.314;10.022;2022-11-30T03:32:01;101.27;;;36.27;;
20454;SDS011;10386;54.314;10.022;2022-11-30T03:34:30;96.73;;;35.07;;
20454;SDS011;10386;54.314;10.022;2022-11-30T03:36:57;104.23;;;34.77;;
20454;SDS011;10386;54.314;10.022;2022-11-30T03:39:25;93.73;;;34.63;;
20454;SDS011;10386;54.314;10.022;2022-11-30T03:41:52;106.77;;;36.23;;
20454;SDS011;10386;54.314;10.022;2022-11-30T03:44:20;105.30;;;36.60;;
20454;SDS011;10386;54.314;10.022;2022-11-30T03:46:47;106.50;;;36.70;;
20454;SDS011;10386;54.314;10.022;2022-11-30T03:49:14;106.03;;;36.17;;
20454;SDS011;10386;54.314;10.022;2022-11-30T03:51:41;120.43;;;37.43;;
20454;SDS011;10386;54.314;10.022;2022-11-30T03:54:09;112.60;;;37.70;;
20454;SDS011;10386;54.314;10.022;2022-11-30T03:56:36;105.53;;;36.77;;
20454;SDS011;10386;54.314;10.022;2022-11-30T03:59:03;105.60;;;36.07;;
20454;SDS011;10386;54.314;10.022;2022-11-30T04:01:31;109.00;;;36.13;;
20454;SDS011;10386;54.314;10.022;2022-11-30T04:03:58;106.70;;;35.37;;
20454;SDS011;10386;54.314;10.022;2022-11-30T04:06:25;109.10;;;37.40;;
20454;SDS011;10386;54.314;10.022;2022-11-30T04:08:52;108.10;;;36.70;;
20454;SDS011;10386;54.314;10.022;2022-11-30T04:11:20;106.93;;;36.83;;
20454;SDS011;10386;54.314;10.022;2022-11-30T04:13:47;102.43;;;36.80;;
20454;SDS011;10386;54.314;10.022;2022-11-30T04:16:14;109.67;;;36.00;;
20454;SDS011;10386;54.314;10.022;2022-11-30T04:18:41;106.37;;;35.57;;
20454;SDS011;10386;54.314;10.022;2022-11-30T04:21:09;103.30;;;36.93;;
20454;SDS011;10386;54.314;10.022;2022-11-30T04:23:37;100.20;;;35.70;;
20454;SDS011;10386;54.314;10.022;2022-11-30T04:26:06;106.57;;;35.57;;
20454;SDS011;10386;54.314;10.022;2022-11-30T04:28:37;108.63;;;37.30;;
20454;SDS011;10386;54.314;10.022;2022-11-30T04:31:04;105.23;;;37.60;;
20454;SDS011;10386;54.314;10.022;2022-11-30T04:33:32;104.97;;;35.23;;
20454;SDS011;10386;54.314;10.022;2022-11-30T04:36:02;102.27;;;34.50;;
20454;SDS011;10386;54.314;10.022;2022-11-30T04:38:32;99.80;;;33.77;;
20454;SDS011;10386;54.314;10.022;2022-11-30T04:41:04;107.13;;;36.93;;
20454;SDS011;10386;54.314;10.022;2022-11-30T04:43:32;106.80;;;36.67;;
20454;SDS011;10386;54.314;10.022;2022-11-30T04:45:59;106.30;;;36.37;;
20454;SDS011;10386;54.314;10.022;2022-11-30T04:48:27;98.13;;;35.53;;
20454;SDS011;10386;54.314;10.022;2022-11-30T04:50:58;106.17;;;37.03;;
20454;SDS011;10386;54.314;10.022;2022-11-30T04:53:29;108.93;;;35.70;;
20454;SDS011;10386;54.314;10.022;2022-11-30T04:55:57;105.53;;;36.40;;
20454;SDS011;10386;54.314;10.022;2022-11-30T04:58:24;106.90;;;37.70;;
20454;SDS011;10386;54.314;10.022;2022-11-30T05:00:54;110.03;;;36.47;;
20454;SDS011;10386;54.314;10.022;2022-11-30T05:03:21;101.10;;;35.60;;
20454;SDS011;10386;54.314;10.022;2022-11-30T05:05:48;107.53;;;35.57;;
20454;SDS011;10386;54.314;10.022;2022-11-30T05:08:16;119.25;;;44.80;;
20454;SDS011;10386;54.314;10.022;2022-11-30T05:10:43;117.33;;;37.40;;
20454;SDS011;10386;54.314;10.022;2022-11-30T05:13:16;104.10;;;37.43;;
20454;SDS011;10386;54.314;10.022;2022-11-30T05:15:44;104.30;;;36.80;;
20454;SDS011;10386;54.314;10.022;2022-11-30T05:18:12;100.20;;;36.27;;
20454;SDS011;10386;54.314;10.022;2022-11-30T05:20:45;105.17;;;37.03;;
20454;SDS011;10386;54.314;10.022;2022-11-30T05:23:13;97.63;;;35.70;;
20454;SDS011;10386;54.314;10.022;2022-11-30T05:25:42;97.03;;;35.73;;
20454;SDS011;10386;54.314;10.022;2022-11-30T05:28:10;103.13;;;38.60;;
20454;SDS011;10386;54.314;10.022;2022-11-30T05:30:38;105.77;;;36.20;;
20454;SDS011;10386;54.314;10.022;2022-11-30T05:33:06;105.70;;;35.30;;
20454;SDS011;10386;54.314;10.022;2022-11-30T05:35:34;100.10;;;36.70;;
20454;SDS011;10386;54.314;10.022;2022-11-30T05:38:02;113.10;;;36.90;;
20454;SDS011;10386;54.314;10.022;2022-11-30T05:40:29;110.93;;;37.73;;
20454;SDS011;10386;54.314;10.022;2022-11-30T05:42:58;100.80;;;37.17;;
20454;SDS011;10386;54.314;10.022;2022-11-30T05:45:28;115.87;;;38.27;;
20454;SDS011;10386;54.314;10.022;2022-11-30T05:47:56;110.17;;;37.00;;
20454;SDS011;10386;54.314;10.022;2022-11-30T05:50:23;114.50;;;39.27;;
20454;SDS011;10386;54.314;10.022;2022-11-30T05:52:54;120.50;;;36.80;;
20454;SDS011;10386;54.314;10.022;2022-11-30T05:55:27;127.87;;;40.27;;
20454;SDS011;10386;54.314;10.022;2022-11-30T05:57:55;119.23;;;37.67;;
20454;SDS011;10386;54.314;10.022;2022-11-30T06:00:22;112.57;;;37.30;;
20454;SDS011;10386;54.314;10.022;2022-11-30T06:02:54;117.70;;;38.50;;
20454;SDS011;10386;54.314;10.022;2022-11-30T06:05:23;119.60;;;39.00;;
20454;SDS011;10386;54.314;10.022;2022-11-30T06:07:50;118.93;;;38.27;;
20454;SDS011;10386;54.314;10.022;2022-11-30T06:10:18;119.70;;;38.93;;
20454;SDS011;10386;54.314;10.022;2022-11-30T06:12:45;113.20;;;37.87;;
20454;SDS011;10386;54.314;10.022;2022-11-30T06:15:14;122.30;;;39.13;;
20454;SDS011;10386;54.314;10.022;2022-11-30T06:17:41;125.10;;;38.60;;
20454;SDS011;10386;54.314;10.022;2022-11-30T06:20:09;122.10;;;37.33;;
20454;SDS011;10386;54.314;10.022;2022-11-30T06:22:36;124.77;;;39.40;;
20454;SDS011;10386;54.314;10.022;2022-11-30T06:25:04;121.43;;;39.47;;
20454;SDS011;10386;54.314;10.022;2022-11-30T06:27:31;121.50;;;39.70;;
20454;SDS011;10386;54.314;10.022;2022-11-30T06:29:58;121.30;;;38.67;;
20454;SDS011;10386;54.314;10.022;2022-11-30T06:32:26;115.37;;;38.53;;
20454;SDS011;10386;54.314;10.022;2022-11-30T06:34:53;126.77;;;37.80;;
20454;SDS011;10386;54.314;10.022;2022-11-30T06:37:21;117.80;;;37.97;;
20454;SDS011;10386;54.314;10.022;2022-11-30T06:39:48;117.83;;;38.53;;
20454;SDS011;10386;54.314;10.022;2022-11-30T06:42:32;123.53;;;38.57;;
20454;SDS011;10386;54.314;10.022;2022-11-30T06:45:01;127.70;;;37.67;;
20454;SDS011;10386;54.314;10.022;2022-11-30T06:47:28;114.50;;;37.60;;
20454;SDS011;10386;54.314;10.022;2022-11-30T06:49:55;124.70;;;37.97;;
20454;SDS011;10386;54.314;10.022;2022-11-30T06:52:22;118.70;;;38.43;;
20454;SDS011;10386;54.314;10.022;2022-11-30T06:54:50;114.03;;;37.60;;
20454;SDS011;10386;54.314;10.022;2022-11-30T06:57:17;117.27;;;37.83;;
20454;SDS011;10386;54.314;10.022;2022-11-30T06:59:44;125.47;;;38.63;;
20454;SDS011;10386;54.314;10.022;2022-11-30T07:02:12;130.20;;;39.67;;
20454;SDS011;10386;54.314;10.022;2022-11-30T07:04:44;127.20;;;38.40;;
20454;SDS011;10386;54.314;10.022;2022-11-30T07:07:12;121.70;;;39.37;;
20454;SDS011;10386;54.314;10.022;2022-11-30T07:09:39;117.90;;;39.27;;
20454;SDS011;10386;54.314;10.022;2022-11-30T07:12:06;129.80;;;40.33;;
20454;SDS011;10386;54.314;10.022;2022-11-30T07:14:33;126.00;;;40.63;;
20454;SDS011;10386;54.314;10.022;2022-11-30T07:17:00;122.93;;;40.73;;
20454;SDS011;10386;54.314;10.022;2022-11-30T07:19:30;129.00;;;40.47;;
20454;SDS011;10386;54.314;10.022;2022-11-30T07:21:59;128.40;;;40.37;;
20454;SDS011;10386;54.314;10.022;2022-11-30T07:24:27;134.50;;;40.23;;
20454;SDS011;10386;54.314;10.022;2022-11-30T07:27:13;127.07;;;38.87;;
20454;SDS011;10386;54.314;10.022;2022-11-30T07:29:40;129.40;;;40.13;;
20454;SDS011;10386;54.314;10.022;2022-11-30T07:32:07;124.70;;;40.23;;
20454;SDS011;10386;54.314;10.022;2022-11-30T07:34:34;128.17;;;41.17;;
20454;SDS011;10386;54.314;10.022;2022-11-30T07:37:01;137.40;;;38.93;;
20454;SDS011;10386;54.314;10.022;2022-11-30T07:39:28;123.83;;;40.03;;
20454;SDS011;10386;54.314;10.022;2022-11-30T07:41:55;125.67;;;40.93;;
20454;SDS011;10386;54.314;10.022;2022-11-30T07:44:22;133.00;;;39.53;;
20454;SDS011;10386;54.314;10.022;2022-11-30T07:46:49;137.63;;;39.73;;
20454;SDS011;10386;54.314;10.022;2022-11-30T07:49:15;125.30;;;41.83;;
20454;SDS011;10386;54.314;10.022;2022-11-30T07:51:42;138.37;;;42.07;;
20454;SDS011;10386;54.314;10.022;2022-11-30T07:54:09;135.70;;;40.50;;
20454;SDS011;10386;54.314;10.022;2022-11-30T07:56:37;134.33;;;40.77;;
20454;SDS011;10386;54.314;10.022;2022-11-30T07:59:04;144.27;;;42.20;;
20454;SDS011;10386;54.314;10.022;2022-11-30T08:01:31;134.70;;;41.40;;
20454;SDS011;10386;54.314;10.022;2022-11-30T08:03:59;134.50;;;40.50;;
20454;SDS011;10386;54.314;10.022;2022-11-30T08:06:27;146.80;;;41.00;;
20454;SDS011;10386;54.314;10.022;2022-11-30T08:08:56;132.13;;;41.20;;
20454;SDS011;10386;54.314;10.022;2022-11-30T08:11:28;133.00;;;41.63;;
20454;SDS011;10386;54.314;10.022;2022-11-30T08:13:57;130.67;;;41.33;;
20454;SDS011;10386;54.314;10.022;2022-11-30T08:16:25;136.57;;;40.67;;
20454;SDS011;10386;54.314;10.022;2022-11-30T08:18:54;136.10;;;40.60;;
20454;SDS011;10386;54.314;10.022;2022-11-30T08:21:22;140.87;;;41.27;;
20454;SDS011;10386;54.314;10.022;2022-11-30T08:23:51;135.43;;;41.70;;
20454;SDS011;10386;54.314;10.022;2022-11-30T08:26:29;146.10;;;44.33;;
20454;SDS011;10386;54.314;10.022;2022-11-30T08:28:57;143.07;;;43.20;;
20454;SDS011;10386;54.314;10.022;2022-11-30T08:31:27;131.57;;;43.10;;
20454;SDS011;10386;54.314;10.022;2022-11-30T08:33:58;133.67;;;40.47;;
20454;SDS011;10386;54.314;10.022;2022-11-30T08:36:27;148.10;;;40.93;;
20454;SDS011;10386;54.314;10.022;2022-11-30T08:38:55;135.37;;;40.87;;
20454;SDS011;10386;54.314;10.022;2022-11-30T08:41:24;152.73;;;49.47;;
20454;SDS011;10386;54.314;10.022;2022-11-30T08:43:51;141.63;;;44.20;;
20454;SDS011;10386;54.314;10.022;2022-11-30T08:46:19;136.77;;;40.60;;
20454;SDS011;10386;54.314;10.022;2022-11-30T08:49:07;141.17;;;41.40;;
20454;SDS011;10386;54.314;10.022;2022-11-30T08:51:51;129.23;;;40.03;;
20454;SDS011;10386;54.314;10.022;2022-11-30T08:54:41;136.90;;;40.60;;
20454;SDS011;10386;54.314;10.022;2022-11-30T08:57:11;136.03;;;41.27;;
20454;SDS011;10386;54.314;10.022;2022-11-30T08:59:38;135.80;;;41.43;;
20454;SDS011;10386;54.314;10.022;2022-11-30T09:02:05;146.70;;;40.83;;
20454;SDS011;10386;54.314;10.022;2022-11-30T09:04:32;125.77;;;39.50;;
20454;SDS011;10386;54.314;10.022;2022-11-30T09:06:59;135.27;;;37.97;;
20454;SDS011;10386;54.314;10.022;2022-11-30T09:09:26;125.50;;;37.23;;
20454;SDS011;10386;54.314;10.022;2022-11-30T09:11:55;116.90;;;37.37;;
20454;SDS011;10386;54.314;10.022;2022-11-30T09:14:22;128.73;;;38.10;;
20454;SDS011;10386;54.314;10.022;2022-11-30T09:16:49;121.97;;;39.10;;
20454;SDS011;10386;54.314;10.022;2022-11-30T09:19:16;122.33;;;39.27;;
20454;SDS011;10386;54.314;10.022;2022-11-30T09:21:43;137.60;;;39.20;;
20454;SDS011;10386;54.314;10.022;2022-11-30T09:24:16;127.13;;;40.03;;
20454;SDS011;10386;54.314;10.022;2022-11-30T09:26:43;148.73;;;40.60;;
20454;SDS011;10386;54.314;10.022;2022-11-30T09:29:10;132.63;;;37.93;;
20454;SDS011;10386;54.314;10.022;2022-11-30T09:31:37;131.83;;;39.30;;
20454;SDS011;10386;54.314;10.022;2022-11-30T09:34:04;133.17;;;39.93;;
20454;SDS011;10386;54.314;10.022;2022-11-30T09:36:31;139.73;;;40.60;;
20454;SDS011;10386;54.314;10.022;2022-11-30T09:38:59;141.10;;;40.43;;
20454;SDS011;10386;54.314;10.022;2022-11-30T09:44:23;141.20;;;41.27;;
20454;SDS011;10386;54.314;10.022;2022-11-30T09:49:29;130.30;;;39.87;;
20454;SDS011;10386;54.314;10.022;2022-11-30T09:52:00;145.40;;;43.80;;
20454;SDS011;10386;54.314;10.022;2022-11-30T09:54:33;131.37;;;40.43;;
20454;SDS011;10386;54.314;10.022;2022-11-30T09:57:04;134.53;;;39.17;;
20454;SDS011;10386;54.314;10.022;2022-11-30T09:59:55;129.30;;;38.87;;
20454;SDS011;10386;54.314;10.022;2022-11-30T10:02:28;128.93;;;40.40;;
20454;SDS011;10386;54.314;10.022;2022-11-30T10:04:59;127.23;;;39.83;;
20454;SDS011;10386;54.314;10.022;2022-11-30T10:10:13;110.07;;;35.93;;
20454;SDS011;10386;54.314;10.022;2022-11-30T10:13:15;116.03;;;37.93;;
20454;SDS011;10386;54.314;10.022;2022-11-30T10:27:00;129.20;;;40.33;;
20454;SDS011;10386;54.314;10.022;2022-11-30T10:30:07;130.83;;;40.27;;
20454;SDS011;10386;54.314;10.022;2022-11-30T10:36:12;121.77;;;39.57;;
20454;SDS011;10386;54.314;10.022;2022-11-30T10:39:01;123.10;;;39.67;;
20454;SDS011;10386;54.314;10.022;2022-11-30T10:41:43;118.00;;;37.90;;
20454;SDS011;10386;54.314;10.022;2022-11-30T10:44:14;130.93;;;39.90;;
20454;SDS011;10386;54.314;10.022;2022-11-30T10:46:57;126.43;;;36.63;;
20454;SDS011;10386;54.314;10.022;2022-11-30T10:49:28;127.27;;;38.53;;
20454;SDS011;10386;54.314;10.022;2022-11-30T10:51:58;120.20;;;37.00;;
20454;SDS011;10386;54.314;10.022;2022-11-30T10:54:29;129.27;;;39.10;;
20454;SDS011;10386;54.314;10.022;2022-11-30T10:56:58;122.23;;;39.90;;
20454;SDS011;10386;54.314;10.022;2022-11-30T10:59:44;116.13;;;37.50;;
20454;SDS011;10386;54.314;10.022;2022-11-30T11:05:07;116.23;;;38.17;;
20454;SDS011;10386;54.314;10.022;2022-11-30T11:07:47;126.30;;;38.67;;
20454;SDS011;10386;54.314;10.022;2022-11-30T11:16:03;117.43;;;37.63;;
20454;SDS011;10386;54.314;10.022;2022-11-30T11:18:35;119.07;;;37.87;;
20454;SDS011;10386;54.314;10.022;2022-11-30T11:21:37;121.70;;;38.60;;
20454;SDS011;10386;54.314;10.022;2022-11-30T11:23:56;123.53;;;36.67;;
20454;SDS011;10386;54.314;10.022;2022-11-30T11:26:27;105.13;;;36.10;;
20454;SDS011;10386;54.314;10.022;2022-11-30T11:28:56;117.23;;;36.67;;
20454;SDS011;10386;54.314;10.022;2022-11-30T11:31:42;110.33;;;34.93;;
20454;SDS011;10386;54.314;10.022;2022-11-30T11:34:33;112.03;;;36.60;;
20454;SDS011;10386;54.314;10.022;2022-11-30T11:39:40;116.10;;;36.10;;
20454;SDS011;10386;54.314;10.022;2022-11-30T11:42:17;107.20;;;36.10;;
20454;SDS011;10386;54.314;10.022;2022-11-30T11:44:48;107.70;;;35.77;;
20454;SDS011;10386;54.314;10.022;2022-11-30T11:47:22;108.47;;;35.33;;
20454;SDS011;10386;54.314;10.022;2022-11-30T11:50:03;106.47;;;35.10;;
20454;SDS011;10386;54.314;10.022;2022-11-30T11:52:32;97.90;;;32.87;;
20454;SDS011;10386;54.314;10.022;2022-11-30T11:55:02;102.43;;;34.50;;
20454;SDS011;10386;54.314;10.022;2022-11-30T11:57:48;94.10;;;32.77;;
20454;SDS011;10386;54.314;10.022;2022-11-30T12:00:25;103.97;;;33.40;;
20454;SDS011;10386;54.314;10.022;2022-11-30T12:05:31;97.40;;;34.37;;
20454;SDS011;10386;54.314;10.022;2022-11-30T12:08:16;102.80;;;35.50;;
20454;SDS011;10386;54.314;10.022;2022-11-30T12:13:43;106.10;;;36.27;;
20454;SDS011;10386;54.314;10.022;2022-11-30T12:21:40;104.53;;;34.77;;
20454;SDS011;10386;54.314;10.022;2022-11-30T12:27:21;105.80;;;35.13;;
20454;SDS011;10386;54.314;10.022;2022-11-30T12:30:11;92.10;;;33.07;;
20454;SDS011;10386;54.314;10.022;2022-11-30T12:38:21;102.97;;;33.97;;
20454;SDS011;10386;54.314;10.022;2022-11-30T12:41:05;96.80;;;34.73;;
20454;SDS011;10386;54.314;10.022;2022-11-30T12:52:00;97.20;;;34.27;;
20454;SDS011;10386;54.314;10.022;2022-11-30T12:54:47;102.33;;;35.47;;
20454;SDS011;10386;54.314;10.022;2022-11-30T12:57:20;105.30;;;35.33;;
20454;SDS011;10386;54.314;10.022;2022-11-30T13:02:45;107.40;;;38.00;;
20454;SDS011;10386;54.314;10.022;2022-11-30T13:05:43;112.40;;;38.03;;
20454;SDS011;10386;54.314;10.022;2022-11-30T13:11:04;129.67;;;39.50;;
20454;SDS011;10386;54.314;10.022;2022-11-30T13:13:34;119.20;;;39.87;;
20454;SDS011;10386;54.314;10.022;2022-11-30T13:16:03;124.43;;;39.60;;
20454;SDS011;10386;54.314;10.022;2022-11-30T13:18:33;133.33;;;41.60;;
20454;SDS011;10386;54.314;10.022;2022-11-30T13:21:03;120.23;;;38.83;;
20454;SDS011;10386;54.314;10.022;2022-11-30T13:26:51;136.40;;;39.10;;
20454;SDS011;10386;54.314;10.022;2022-11-30T13:29:47;128.40;;;39.43;;
20454;SDS011;10386;54.314;10.022;2022-11-30T13:32:44;123.60;;;41.03;;
20454;SDS011;10386;54.314;10.022;2022-11-30T13:38:00;123.97;;;39.07;;
20454;SDS011;10386;54.314;10.022;2022-11-30T13:40:55;129.90;;;40.07;;
20454;SDS011;10386;54.314;10.022;2022-11-30T13:43:25;135.20;;;40.53;;
20454;SDS011;10386;54.314;10.022;2022-11-30T13:46:01;124.97;;;40.73;;
20454;SDS011;10386;54.314;10.022;2022-11-30T13:48:31;126.17;;;38.97;;
20454;SDS011;10386;54.314;10.022;2022-11-30T13:51:09;123.20;;;39.93;;
20454;SDS011;10386;54.314;10.022;2022-11-30T13:53:37;127.17;;;41.83;;
20454;SDS011;10386;54.314;10.022;2022-11-30T14:10:31;131.47;;;41.60;;
20454;SDS011;10386;54.314;10.022;2022-11-30T14:13:22;122.67;;;38.73;;
20454;SDS011;10386;54.314;10.022;2022-11-30T14:15:55;128.00;;;41.73;;
20454;SDS011;10386;54.314;10.022;2022-11-30T14:18:30;139.43;;;43.97;;
20454;SDS011;10386;54.314;10.022;2022-11-30T14:21:21;136.27;;;42.33;;
20454;SDS011;10386;54.314;10.022;2022-11-30T14:23:58;131.93;;;39.47;;
20454;SDS011;10386;54.314;10.022;2022-11-30T14:34:14;125.60;;;39.20;;
20454;SDS011;10386;54.314;10.022;2022-11-30T14:36:47;145.75;;;45.70;;
20454;SDS011;10386;54.314;10.022;2022-11-30T14:41:57;127.57;;;39.53;;
20454;SDS011;10386;54.314;10.022;2022-11-30T14:44:25;126.50;;;40.03;;
20454;SDS011;10386;54.314;10.022;2022-11-30T14:46:53;130.27;;;41.07;;
20454;SDS011;10386;54.314;10.022;2022-11-30T14:49:20;128.57;;;39.73;;
20454;SDS011;10386;54.314;10.022;2022-11-30T14:51:51;126.90;;;40.33;;
20454;SDS011;10386;54.314;10.022;2022-11-30T14:59:53;134.93;;;41.97;;
20454;SDS011;10386;54.314;10.022;2022-11-30T15:02:22;136.50;;;41.30;;
20454;SDS011;10386;54.314;10.022;2022-11-30T15:04:55;135.53;;;39.87;;
20454;SDS011;10386;54.314;10.022;2022-11-30T15:07:24;128.53;;;39.13;;
20454;SDS011;10386;54.314;10.022;2022-11-30T15:09:53;137.67;;;41.50;;
20454;SDS011;10386;54.314;10.022;2022-11-30T15:12:27;149.47;;;42.20;;
20454;SDS011;10386;54.314;10.022;2022-11-30T15:18:14;137.30;;;39.93;;
20454;SDS011;10386;54.314;10.022;2022-11-30T15:20:48;132.83;;;39.10;;
20454;SDS011;10386;54.314;10.022;2022-11-30T15:23:16;127.90;;;41.30;;
20454;SDS011;10386;54.314;10.022;2022-11-30T15:25:46;141.30;;;41.00;;
20454;SDS011;10386;54.314;10.022;2022-11-30T15:28:24;143.40;;;41.37;;
20454;SDS011;10386;54.314;10.022;2022-11-30T15:30:58;132.13;;;41.30;;
20454;SDS011;10386;54.314;10.022;2022-11-30T15:33:30;134.67;;;41.20;;
20454;SDS011;10386;54.314;10.022;2022-11-30T15:36:03;126.07;;;40.70;;
20454;SDS011;10386;54.314;10.022;2022-11-30T15:38:48;127.70;;;38.47;;
20454;SDS011;10386;54.314;10.022;2022-11-30T15:41:23;126.80;;;38.30;;
20454;SDS011;10386;54.314;10.022;2022-11-30T15:43:55;132.87;;;39.20;;
20454;SDS011;10386;54.314;10.022;2022-11-30T15:46:26;139.77;;;40.70;;
20454;SDS011;10386;54.314;10.022;2022-11-30T15:49:16;131.57;;;40.90;;
20454;SDS011;10386;54.314;10.022;2022-11-30T15:54:48;131.70;;;38.97;;
20454;SDS011;10386;54.314;10.022;2022-11-30T16:00:29;149.03;;;41.03;;
20454;SDS011;10386;54.314;10.022;2022-11-30T16:03:09;129.87;;;40.30;;
20454;SDS011;10386;54.314;10.022;2022-11-30T16:05:53;129.47;;;39.00;;
20454;SDS011;10386;54.314;10.022;2022-11-30T16:08:22;126.23;;;38.73;;
20454;SDS011;10386;54.314;10.022;2022-11-30T16:10:50;131.23;;;42.40;;
20454;SDS011;10386;54.314;10.022;2022-11-30T16:13:18;118.23;;;38.50;;
20454;SDS011;10386;54.314;10.022;2022-11-30T16:15:47;135.77;;;42.47;;
20454;SDS011;10386;54.314;10.022;2022-11-30T16:18:22;143.47;;;41.77;;
20454;SDS011;10386;54.314;10.022;2022-11-30T16:20:54;126.30;;;40.67;;
20454;SDS011;10386;54.314;10.022;2022-11-30T16:23:24;130.27;;;39.47;;
20454;SDS011;10386;54.314;10.022;2022-11-30T16:25:51;135.97;;;41.20;;
20454;SDS011;10386;54.314;10.022;2022-11-30T16:28:19;131.10;;;40.57;;
20454;SDS011;10386;54.314;10.022;2022-11-30T16:30:47;128.23;;;39.53;;